createdAt,value
2022-08-17T00:00:52.348Z,25.02
2022-08-17T00:06:10.838Z,24.90
2022-08-17T00:11:34.582Z,27.05
2022-08-17T00:16:56.340Z,28.80
2022-08-17T00:22:34.903Z,27.13
2022-08-17T00:27:37.331Z,24.35
2022-08-17T00:33:14.033Z,23.10
2022-08-17T00:38:24.394Z,23.65
2022-08-17T00:44:01.895Z,24.42
2022-08-17T00:49:24.184Z,23.95
2022-08-17T00:54:42.550Z,21.73
2022-08-17T01:00:03.277Z,23.15
2022-08-17T01:05:16.002Z,22.02
2022-08-17T01:11:00.186Z,23.75
2022-08-17T01:16:28.191Z,24.77
2022-08-17T01:21:50.905Z,23.98
2022-08-17T01:32:16.225Z,23.67
2022-08-17T01:37:32.854Z,21.90
2022-08-17T01:42:49.962Z,21.52
2022-08-17T01:48:02.759Z,22.05
2022-08-17T01:53:23.586Z,24.73
2022-08-17T01:58:41.757Z,24.63
2022-08-17T02:03:59.680Z,24.05
2022-08-17T02:14:37.510Z,23.35
2022-08-17T02:19:50.350Z,24.75
2022-08-17T02:25:02.134Z,27.50
2022-08-17T02:30:59.656Z,26.45
2022-08-17T02:35:43.867Z,28.48
2022-08-17T02:40:52.718Z,25.27
2022-08-17T02:46:09.112Z,24.23
2022-08-17T02:51:23.667Z,24.77
2022-08-17T02:56:48.237Z,23.73
2022-08-17T03:01:58.868Z,21.52
2022-08-17T03:07:15.285Z,21.77
2022-08-17T03:12:22.610Z,23.23
2022-08-17T03:17:31.390Z,22.85
2022-08-17T03:22:53.049Z,24.80
2022-08-17T03:28:00.429Z,24.50
2022-08-17T03:33:16.742Z,22.67
2022-08-17T03:38:21.383Z,23.20
2022-08-17T03:43:37.085Z,24.23
2022-08-17T03:49:04.169Z,22.67
2022-08-17T03:54:33.039Z,23.30
2022-08-17T03:59:35.777Z,24.42
2022-08-17T04:04:38.336Z,24.65
2022-08-17T04:09:40.185Z,25.92
2022-08-17T04:14:53.286Z,27.55
2022-08-17T04:19:57.186Z,28.38
2022-08-17T04:24:59.490Z,30.58
2022-08-17T04:30:01.389Z,30.73
2022-08-17T04:35:03.029Z,30.27
2022-08-17T04:40:27.437Z,28.88
2022-08-17T04:45:32.119Z,30.17
2022-08-17T04:50:36.497Z,29.08
2022-08-17T04:55:42.460Z,27.70
2022-08-17T05:00:44.014Z,28.08
2022-08-17T05:05:49.693Z,27.38
2022-08-17T05:10:55.000Z,27.15
2022-08-17T05:15:59.665Z,24.88
2022-08-17T05:21:02.884Z,26.25
2022-08-17T05:26:08.584Z,25.33
2022-08-17T05:31:13.960Z,26.30
2022-08-17T05:36:42.397Z,26.48
2022-08-17T05:41:37.538Z,24.45
2022-08-17T05:46:43.655Z,24.05
2022-08-17T05:51:52.314Z,23.58
2022-08-17T05:57:12.601Z,25.07
2022-08-17T06:02:55.849Z,24.80
2022-08-17T06:08:20.690Z,26.25
2022-08-17T06:13:40.544Z,23.55
2022-08-17T06:23:59.442Z,24.17
2022-08-17T06:29:18.753Z,25.20
2022-08-17T06:34:25.938Z,26.88
2022-08-17T06:39:54.721Z,28.10
2022-08-17T06:45:17.547Z,28.50
2022-08-17T06:50:38.254Z,29.58
2022-08-17T06:55:56.381Z,29.88
2022-08-17T07:01:21.772Z,30.75
2022-08-17T07:06:30.524Z,29.90
2022-08-17T07:12:13.056Z,29.20
2022-08-17T07:17:20.894Z,28.73
2022-08-17T07:22:55.217Z,27.67
2022-08-17T07:28:00.483Z,26.67
2022-08-17T07:33:15.743Z,26.30
2022-08-17T07:38:26.823Z,25.95
2022-08-17T07:43:40.326Z,25.25
2022-08-17T07:48:52.713Z,25.35
2022-08-17T07:54:27.848Z,24.70
2022-08-17T08:00:31.994Z,24.60
2022-08-17T08:06:53.259Z,25.00
2022-08-17T08:33:06.255Z,23.65
2022-08-17T08:45:06.931Z,21.42
2022-08-17T08:50:37.429Z,21.45
2022-08-17T08:56:11.716Z,21.23
2022-08-17T09:01:35.083Z,20.58
2022-08-17T09:07:12.711Z,18.90
2022-08-17T09:12:22.664Z,20.38
2022-08-17T09:17:47.405Z,19.85
2022-08-17T09:23:58.306Z,19.52
2022-08-17T09:29:36.629Z,18.05
2022-08-17T09:47:38.227Z,16.98
2022-08-17T09:52:59.166Z,14.95
2022-08-17T09:58:25.648Z,15.90
2022-08-17T10:03:42.445Z,17.33
2022-08-17T10:09:08.846Z,15.95
2022-08-17T10:14:43.549Z,16.30
2022-08-17T10:20:15.132Z,14.57
2022-08-17T10:25:53.946Z,15.35
2022-08-17T10:36:57.618Z,16.60
2022-08-17T10:42:16.061Z,15.05
2022-08-17T10:48:06.104Z,15.30
2022-08-17T10:53:08.785Z,15.18
2022-08-17T10:58:21.896Z,13.70
2022-08-17T11:03:26.603Z,14.07
2022-08-17T11:09:00.869Z,13.20
2022-08-17T11:14:21.743Z,15.18
2022-08-17T11:19:42.117Z,12.50
2022-08-17T11:24:48.239Z,12.93
2022-08-17T11:30:01.529Z,14.45
2022-08-17T11:35:22.418Z,11.50
2022-08-17T11:40:54.938Z,11.27
2022-08-17T11:46:53.969Z,8.48
2022-08-17T11:52:03.969Z,9.70
2022-08-17T11:57:27.322Z,7.75
2022-08-17T12:02:35.362Z,7.43
2022-08-17T12:07:42.966Z,8.80
2022-08-17T12:12:46.695Z,7.95
2022-08-17T12:17:55.689Z,7.75
2022-08-17T12:23:25.595Z,8.50
2022-08-17T12:28:36.133Z,9.13
2022-08-17T12:33:43.878Z,8.23
2022-08-17T12:43:58.725Z,7.78
2022-08-17T12:54:31.467Z,7.05
2022-08-17T12:59:33.227Z,6.57
2022-08-17T13:04:39.336Z,7.50
2022-08-17T13:09:51.245Z,7.03
2022-08-17T13:14:52.879Z,7.05
2022-08-17T13:19:54.780Z,7.03
2022-08-17T13:25:03.714Z,7.22
2022-08-17T13:30:12.041Z,6.93
2022-08-17T13:35:36.419Z,6.07
2022-08-17T13:40:50.073Z,7.87
2022-08-17T13:45:56.078Z,5.80
2022-08-17T13:50:57.771Z,6.90
2022-08-17T13:56:37.746Z,5.35
2022-08-17T14:01:53.381Z,5.68
2022-08-17T14:12:05.923Z,3.80
2022-08-17T14:17:07.989Z,5.95
2022-08-17T14:22:18.359Z,7.13
2022-08-17T14:27:21.027Z,7.72
2022-08-17T14:32:29.461Z,6.43
2022-08-17T14:37:35.097Z,6.88
2022-08-17T14:43:05.531Z,6.68
2022-08-17T14:48:46.256Z,6.25
2022-08-17T14:53:50.425Z,2.85
2022-08-17T14:58:52.158Z,2.92
2022-08-17T15:03:53.976Z,3.20
2022-08-17T15:09:17.721Z,3.75
2022-08-17T15:14:20.235Z,3.38
2022-08-17T15:19:22.201Z,4.00
2022-08-17T15:24:24.025Z,4.53
2022-08-17T15:29:25.546Z,4.40
2022-08-17T15:34:27.114Z,4.63
2022-08-17T15:39:28.758Z,4.57
2022-08-17T15:44:34.760Z,4.63
2022-08-17T15:49:40.761Z,4.65
2022-08-17T15:54:42.767Z,4.75
2022-08-17T15:59:52.076Z,5.10
2022-08-17T16:05:13.932Z,6.05
2022-08-17T16:10:19.176Z,6.10
2022-08-17T16:15:23.123Z,6.50
2022-08-17T16:20:25.177Z,8.07
2022-08-17T16:25:49.694Z,7.07
2022-08-17T16:30:52.898Z,7.70
2022-08-17T16:36:03.400Z,7.55
2022-08-17T16:41:06.326Z,8.75
2022-08-17T16:46:07.925Z,8.60
2022-08-17T16:51:09.701Z,8.70
2022-08-17T16:56:11.575Z,9.50
2022-08-17T17:01:13.786Z,9.30
2022-08-17T17:06:22.769Z,11.15
2022-08-17T17:11:40.905Z,11.68
2022-08-17T17:16:57.597Z,10.73
2022-08-17T17:22:12.574Z,11.23
2022-08-17T17:27:47.575Z,10.48
2022-08-17T17:33:13.592Z,11.50
2022-08-17T17:38:29.195Z,10.45
2022-08-17T17:43:40.599Z,10.27
2022-08-17T17:48:42.580Z,9.93
2022-08-17T17:53:59.436Z,9.82
2022-08-17T17:59:26.637Z,9.43
2022-08-17T18:04:58.752Z,9.70
2022-08-17T18:10:19.427Z,8.70
2022-08-17T18:15:29.527Z,8.35
2022-08-17T18:20:43.242Z,8.43
2022-08-17T18:25:54.461Z,8.85
2022-08-17T18:31:07.876Z,8.48
2022-08-17T18:36:11.354Z,9.43
2022-08-17T18:41:30.267Z,9.65
2022-08-17T18:46:36.576Z,9.65
2022-08-17T18:51:43.191Z,10.23
2022-08-17T18:57:00.775Z,10.05
2022-08-17T19:02:20.737Z,10.70
2022-08-17T19:07:48.196Z,9.85
2022-08-17T19:35:05.971Z,8.27
2022-08-17T19:40:29.261Z,8.68
2022-08-17T19:45:56.925Z,8.57
2022-08-17T19:51:09.161Z,8.98
2022-08-17T19:56:25.618Z,9.02
2022-08-17T20:01:39.845Z,8.13
2022-08-17T20:06:46.664Z,9.07
2022-08-17T20:11:58.551Z,8.55
2022-08-17T20:17:03.026Z,8.25
2022-08-17T20:22:17.487Z,8.85
2022-08-17T20:27:29.512Z,8.32
2022-08-17T20:32:53.681Z,7.60
2022-08-17T20:37:59.105Z,7.07
2022-08-17T20:43:29.613Z,7.85
2022-08-17T20:48:39.856Z,6.45
2022-08-17T20:53:48.024Z,7.45
2022-08-17T20:58:49.638Z,6.40
2022-08-17T21:03:52.648Z,7.00
2022-08-17T21:09:15.744Z,6.95
2022-08-17T21:14:43.057Z,6.45
2022-08-17T21:20:11.923Z,6.55
2022-08-17T21:25:41.772Z,7.20
2022-08-17T21:30:49.044Z,7.53
2022-08-17T21:35:52.260Z,6.88
2022-08-17T21:40:55.058Z,7.68
2022-08-17T21:46:01.039Z,6.88
2022-08-17T21:51:17.641Z,8.13
2022-08-17T21:56:30.216Z,6.57
2022-08-17T22:01:34.644Z,7.47
2022-08-17T22:06:41.222Z,8.00
2022-08-17T22:12:02.111Z,7.60
2022-08-17T22:17:21.053Z,7.95
2022-08-17T22:22:31.190Z,8.13
2022-08-17T22:27:46.298Z,8.68
2022-08-17T22:32:49.259Z,9.43
2022-08-17T22:37:51.640Z,9.32
2022-08-17T22:42:53.496Z,8.27
2022-08-17T22:48:01.948Z,9.40
2022-08-17T22:53:34.041Z,10.27
2022-08-17T22:59:02.347Z,9.52
2022-08-17T23:04:11.547Z,8.95
2022-08-17T23:09:13.183Z,9.45
2022-08-17T23:14:15.819Z,9.07
2022-08-17T23:19:20.863Z,9.32
2022-08-17T23:24:26.177Z,9.95
2022-08-17T23:29:29.389Z,12.27
2022-08-17T23:34:31.192Z,13.45
2022-08-17T23:39:32.957Z,15.77
2022-08-17T23:44:36.970Z,15.93
2022-08-17T23:49:40.288Z,17.65
2022-08-17T23:54:46.409Z,18.10
2022-08-17T23:59:48.736Z,17.85
